sensor_id;sensor_type;location;lat;lon;timestamp;P1;durP1;ratioP1;P2;durP2;ratioP2
5937;SDS011;2994;51.220;4.412;2022-11-20T00:01:59;21.40;;;15.77;;
5937;SDS011;2994;51.220;4.412;2022-11-20T00:04:24;19.40;;;14.67;;
5937;SDS011;2994;51.220;4.412;2022-11-20T00:06:50;23.07;;;16.70;;
5937;SDS011;2994;51.220;4.412;2022-11-20T00:09:15;18.93;;;15.27;;
5937;SDS011;2994;51.220;4.412;2022-11-20T00:11:41;23.43;;;16.20;;
5937;SDS011;2994;51.220;4.412;2022-11-20T00:14:06;21.23;;;16.60;;
5937;SDS011;2994;51.220;4.412;2022-11-20T00:16:32;20.80;;;16.80;;
5937;SDS011;2994;51.220;4.412;2022-11-20T00:18:58;18.77;;;16.53;;
5937;SDS011;2994;51.220;4.412;2022-11-20T00:21:27;18.43;;;15.53;;
5937;SDS011;2994;51.220;4.412;2022-11-20T00:23:54;20.23;;;15.33;;
5937;SDS011;2994;51.220;4.412;2022-11-20T00:26:21;19.47;;;15.20;;
5937;SDS011;2994;51.220;4.412;2022-11-20T00:28:51;21.87;;;16.23;;
5937;SDS011;2994;51.220;4.412;2022-11-20T00:31:18;21.93;;;15.10;;
5937;SDS011;2994;51.220;4.412;2022-11-20T00:33:44;18.70;;;15.57;;
5937;SDS011;2994;51.220;4.412;2022-11-20T00:36:11;19.60;;;16.70;;
5937;SDS011;2994;51.220;4.412;2022-11-20T00:38:38;19.57;;;15.33;;
5937;SDS011;2994;51.220;4.412;2022-11-20T00:41:05;20.37;;;14.93;;
5937;SDS011;2994;51.220;4.412;2022-11-20T00:43:32;18.97;;;13.97;;
5937;SDS011;2994;51.220;4.412;2022-11-20T00:46:00;18.57;;;15.40;;
5937;SDS011;2994;51.220;4.412;2022-11-20T00:48:30;20.13;;;13.40;;
5937;SDS011;2994;51.220;4.412;2022-11-20T00:50:56;19.63;;;15.80;;
5937;SDS011;2994;51.220;4.412;2022-11-20T00:53:22;20.90;;;14.87;;
5937;SDS011;2994;51.220;4.412;2022-11-20T00:58:22;22.30;;;16.30;;
5937;SDS011;2994;51.220;4.412;2022-11-20T01:00:49;20.33;;;16.10;;
5937;SDS011;2994;51.220;4.412;2022-11-20T01:03:17;20.80;;;15.77;;
5937;SDS011;2994;51.220;4.412;2022-11-20T01:05:43;21.37;;;16.33;;
5937;SDS011;2994;51.220;4.412;2022-11-20T01:08:09;20.83;;;15.40;;
5937;SDS011;2994;51.220;4.412;2022-11-20T01:10:34;20.90;;;16.30;;
5937;SDS011;2994;51.220;4.412;2022-11-20T01:13:00;22.07;;;16.57;;
5937;SDS011;2994;51.220;4.412;2022-11-20T01:15:44;20.60;;;15.53;;
5937;SDS011;2994;51.220;4.412;2022-11-20T01:18:10;20.67;;;16.57;;
5937;SDS011;2994;51.220;4.412;2022-11-20T01:20:35;17.90;;;14.53;;
5937;SDS011;2994;51.220;4.412;2022-11-20T01:23:01;17.77;;;15.10;;
5937;SDS011;2994;51.220;4.412;2022-11-20T01:25:28;21.73;;;16.70;;
5937;SDS011;2994;51.220;4.412;2022-11-20T01:27:53;20.47;;;15.50;;
5937;SDS011;2994;51.220;4.412;2022-11-20T01:30:19;19.17;;;15.70;;
5937;SDS011;2994;51.220;4.412;2022-11-20T01:32:44;21.57;;;15.10;;
5937;SDS011;2994;51.220;4.412;2022-11-20T01:35:09;19.30;;;15.83;;
5937;SDS011;2994;51.220;4.412;2022-11-20T01:37:35;20.00;;;15.90;;
5937;SDS011;2994;51.220;4.412;2022-11-20T01:40:00;20.47;;;15.03;;
5937;SDS011;2994;51.220;4.412;2022-11-20T01:42:26;21.60;;;16.73;;
5937;SDS011;2994;51.220;4.412;2022-11-20T01:48:14;21.00;;;16.33;;
5937;SDS011;2994;51.220;4.412;2022-11-20T01:50:39;20.90;;;16.97;;
5937;SDS011;2994;51.220;4.412;2022-11-20T01:53:08;22.57;;;17.20;;
5937;SDS011;2994;51.220;4.412;2022-11-20T01:55:39;20.40;;;15.27;;
5937;SDS011;2994;51.220;4.412;2022-11-20T01:58:09;19.20;;;14.10;;
5937;SDS011;2994;51.220;4.412;2022-11-20T02:00:36;21.30;;;16.10;;
5937;SDS011;2994;51.220;4.412;2022-11-20T02:03:03;20.73;;;15.37;;
5937;SDS011;2994;51.220;4.412;2022-11-20T02:05:35;21.60;;;16.50;;
5937;SDS011;2994;51.220;4.412;2022-11-20T02:08:06;20.50;;;15.80;;
5937;SDS011;2994;51.220;4.412;2022-11-20T02:10:32;20.67;;;17.33;;
5937;SDS011;2994;51.220;4.412;2022-11-20T02:12:58;18.63;;;15.00;;
5937;SDS011;2994;51.220;4.412;2022-11-20T02:15:42;19.43;;;14.90;;
5937;SDS011;2994;51.220;4.412;2022-11-20T02:18:09;19.73;;;15.47;;
5937;SDS011;2994;51.220;4.412;2022-11-20T02:20:38;22.40;;;16.67;;
5937;SDS011;2994;51.220;4.412;2022-11-20T02:23:09;19.87;;;16.47;;
5937;SDS011;2994;51.220;4.412;2022-11-20T02:25:38;21.00;;;15.33;;
5937;SDS011;2994;51.220;4.412;2022-11-20T02:28:06;21.03;;;16.63;;
5937;SDS011;2994;51.220;4.412;2022-11-20T02:30:31;23.13;;;15.47;;
5937;SDS011;2994;51.220;4.412;2022-11-20T02:32:57;22.33;;;15.83;;
5937;SDS011;2994;51.220;4.412;2022-11-20T02:37:49;20.03;;;16.40;;
5937;SDS011;2994;51.220;4.412;2022-11-20T02:40:21;22.57;;;16.03;;
5937;SDS011;2994;51.220;4.412;2022-11-20T02:42:47;23.07;;;16.87;;
5937;SDS011;2994;51.220;4.412;2022-11-20T02:45:12;23.10;;;17.60;;
5937;SDS011;2994;51.220;4.412;2022-11-20T02:47:38;22.40;;;15.90;;
5937;SDS011;2994;51.220;4.412;2022-11-20T02:50:04;24.77;;;17.83;;
5937;SDS011;2994;51.220;4.412;2022-11-20T02:52:30;23.10;;;16.90;;
5937;SDS011;2994;51.220;4.412;2022-11-20T02:54:56;22.97;;;17.33;;
5937;SDS011;2994;51.220;4.412;2022-11-20T02:57:21;23.03;;;17.57;;
5937;SDS011;2994;51.220;4.412;2022-11-20T02:59:47;25.73;;;18.07;;
5937;SDS011;2994;51.220;4.412;2022-11-20T03:02:12;26.83;;;19.00;;
5937;SDS011;2994;51.220;4.412;2022-11-20T03:04:37;27.90;;;19.43;;
5937;SDS011;2994;51.220;4.412;2022-11-20T03:07:03;26.93;;;17.17;;
5937;SDS011;2994;51.220;4.412;2022-11-20T03:09:29;28.53;;;19.13;;
5937;SDS011;2994;51.220;4.412;2022-11-20T03:11:54;25.97;;;18.60;;
5937;SDS011;2994;51.220;4.412;2022-11-20T03:14:20;24.70;;;18.87;;
5937;SDS011;2994;51.220;4.412;2022-11-20T03:16:45;24.70;;;18.20;;
5937;SDS011;2994;51.220;4.412;2022-11-20T03:19:11;24.83;;;18.23;;
5937;SDS011;2994;51.220;4.412;2022-11-20T03:21:37;30.20;;;19.10;;
5937;SDS011;2994;51.220;4.412;2022-11-20T03:24:03;27.23;;;18.13;;
5937;SDS011;2994;51.220;4.412;2022-11-20T03:26:29;49.13;;;19.73;;
5937;SDS011;2994;51.220;4.412;2022-11-20T03:28:56;27.40;;;19.33;;
5937;SDS011;2994;51.220;4.412;2022-11-20T03:31:26;25.57;;;18.57;;
5937;SDS011;2994;51.220;4.412;2022-11-20T03:33:53;25.70;;;18.80;;
5937;SDS011;2994;51.220;4.412;2022-11-20T03:36:20;26.17;;;19.23;;
5937;SDS011;2994;51.220;4.412;2022-11-20T03:38:46;25.73;;;19.13;;
5937;SDS011;2994;51.220;4.412;2022-11-20T03:41:12;32.10;;;21.90;;
5937;SDS011;2994;51.220;4.412;2022-11-20T03:43:40;29.80;;;20.20;;
5937;SDS011;2994;51.220;4.412;2022-11-20T03:46:05;29.73;;;21.43;;
5937;SDS011;2994;51.220;4.412;2022-11-20T03:48:32;28.10;;;21.33;;
5937;SDS011;2994;51.220;4.412;2022-11-20T03:51:10;29.90;;;21.30;;
5937;SDS011;2994;51.220;4.412;2022-11-20T03:53:36;36.03;;;23.33;;
5937;SDS011;2994;51.220;4.412;2022-11-20T03:56:02;36.13;;;22.73;;
5937;SDS011;2994;51.220;4.412;2022-11-20T03:58:27;31.40;;;21.80;;
5937;SDS011;2994;51.220;4.412;2022-11-20T04:00:53;32.07;;;20.50;;
5937;SDS011;2994;51.220;4.412;2022-11-20T04:03:18;30.07;;;19.83;;
5937;SDS011;2994;51.220;4.412;2022-11-20T04:05:43;31.50;;;21.30;;
5937;SDS011;2994;51.220;4.412;2022-11-20T04:08:09;36.80;;;21.43;;
5937;SDS011;2994;51.220;4.412;2022-11-20T04:10:34;33.50;;;21.50;;
5937;SDS011;2994;51.220;4.412;2022-11-20T04:13:00;34.57;;;22.57;;
5937;SDS011;2994;51.220;4.412;2022-11-20T04:15:25;29.70;;;21.53;;
5937;SDS011;2994;51.220;4.412;2022-11-20T04:17:51;32.47;;;21.70;;
5937;SDS011;2994;51.220;4.412;2022-11-20T04:20:16;34.90;;;23.27;;
5937;SDS011;2994;51.220;4.412;2022-11-20T04:22:41;28.43;;;20.77;;
5937;SDS011;2994;51.220;4.412;2022-11-20T04:25:07;39.60;;;25.10;;
5937;SDS011;2994;51.220;4.412;2022-11-20T04:27:33;39.07;;;26.40;;
5937;SDS011;2994;51.220;4.412;2022-11-20T04:29:58;46.00;;;26.33;;
5937;SDS011;2994;51.220;4.412;2022-11-20T04:32:24;44.67;;;27.40;;
5937;SDS011;2994;51.220;4.412;2022-11-20T04:34:49;43.10;;;27.23;;
5937;SDS011;2994;51.220;4.412;2022-11-20T04:37:14;47.53;;;28.90;;
5937;SDS011;2994;51.220;4.412;2022-11-20T04:39:40;38.77;;;26.73;;
5937;SDS011;2994;51.220;4.412;2022-11-20T04:42:05;42.80;;;28.17;;
5937;SDS011;2994;51.220;4.412;2022-11-20T04:44:49;48.33;;;30.53;;
5937;SDS011;2994;51.220;4.412;2022-11-20T04:47:15;41.00;;;26.20;;
5937;SDS011;2994;51.220;4.412;2022-11-20T04:49:40;43.47;;;28.30;;
5937;SDS011;2994;51.220;4.412;2022-11-20T04:52:05;40.80;;;28.77;;
5937;SDS011;2994;51.220;4.412;2022-11-20T04:54:31;40.97;;;27.30;;
5937;SDS011;2994;51.220;4.412;2022-11-20T04:56:56;40.77;;;25.10;;
5937;SDS011;2994;51.220;4.412;2022-11-20T04:59:22;43.43;;;28.17;;
5937;SDS011;2994;51.220;4.412;2022-11-20T05:01:47;44.73;;;27.53;;
5937;SDS011;2994;51.220;4.412;2022-11-20T05:04:13;39.77;;;25.47;;
5937;SDS011;2994;51.220;4.412;2022-11-20T05:06:38;42.70;;;26.90;;
5937;SDS011;2994;51.220;4.412;2022-11-20T05:09:03;40.67;;;24.33;;
5937;SDS011;2994;51.220;4.412;2022-11-20T05:11:29;36.57;;;25.70;;
5937;SDS011;2994;51.220;4.412;2022-11-20T05:13:58;40.33;;;24.67;;
5937;SDS011;2994;51.220;4.412;2022-11-20T05:16:24;36.83;;;26.33;;
5937;SDS011;2994;51.220;4.412;2022-11-20T05:18:50;39.83;;;25.77;;
5937;SDS011;2994;51.220;4.412;2022-11-20T05:21:17;41.17;;;24.47;;
5937;SDS011;2994;51.220;4.412;2022-11-20T05:23:43;42.23;;;25.60;;
5937;SDS011;2994;51.220;4.412;2022-11-20T05:26:12;36.73;;;24.60;;
5937;SDS011;2994;51.220;4.412;2022-11-20T05:28:39;34.93;;;24.23;;
5937;SDS011;2994;51.220;4.412;2022-11-20T05:31:09;40.80;;;24.33;;
5937;SDS011;2994;51.220;4.412;2022-11-20T05:33:39;39.47;;;25.67;;
5937;SDS011;2994;51.220;4.412;2022-11-20T05:36:06;36.27;;;24.30;;
5937;SDS011;2994;51.220;4.412;2022-11-20T05:38:32;29.50;;;21.50;;
5937;SDS011;2994;51.220;4.412;2022-11-20T05:41:08;31.70;;;22.00;;
5937;SDS011;2994;51.220;4.412;2022-11-20T05:43:35;32.33;;;21.80;;
5937;SDS011;2994;51.220;4.412;2022-11-20T05:46:02;31.53;;;20.43;;
5937;SDS011;2994;51.220;4.412;2022-11-20T05:48:30;36.77;;;22.87;;
5937;SDS011;2994;51.220;4.412;2022-11-20T05:50:56;33.77;;;22.13;;
5937;SDS011;2994;51.220;4.412;2022-11-20T05:53:23;39.17;;;23.60;;
5937;SDS011;2994;51.220;4.412;2022-11-20T05:55:55;35.17;;;24.50;;
5937;SDS011;2994;51.220;4.412;2022-11-20T05:58:31;33.03;;;23.20;;
5937;SDS011;2994;51.220;4.412;2022-11-20T06:01:08;39.37;;;23.47;;
5937;SDS011;2994;51.220;4.412;2022-11-20T06:03:36;36.13;;;22.87;;
5937;SDS011;2994;51.220;4.412;2022-11-20T06:06:01;31.87;;;23.23;;
5937;SDS011;2994;51.220;4.412;2022-11-20T06:08:28;34.37;;;23.03;;
5937;SDS011;2994;51.220;4.412;2022-11-20T06:10:54;30.33;;;22.27;;
5937;SDS011;2994;51.220;4.412;2022-11-20T06:13:20;35.63;;;23.27;;
5937;SDS011;2994;51.220;4.412;2022-11-20T06:15:52;31.60;;;24.43;;
5937;SDS011;2994;51.220;4.412;2022-11-20T06:18:17;39.03;;;24.80;;
5937;SDS011;2994;51.220;4.412;2022-11-20T06:20:43;35.30;;;24.10;;
5937;SDS011;2994;51.220;4.412;2022-11-20T06:23:09;35.90;;;25.20;;
5937;SDS011;2994;51.220;4.412;2022-11-20T06:25:38;35.03;;;23.03;;
5937;SDS011;2994;51.220;4.412;2022-11-20T06:28:05;34.43;;;23.87;;
5937;SDS011;2994;51.220;4.412;2022-11-20T06:30:30;35.80;;;24.53;;
5937;SDS011;2994;51.220;4.412;2022-11-20T06:32:56;33.10;;;21.53;;
5937;SDS011;2994;51.220;4.412;2022-11-20T06:35:21;33.03;;;23.30;;
5937;SDS011;2994;51.220;4.412;2022-11-20T06:37:46;35.93;;;22.67;;
5937;SDS011;2994;51.220;4.412;2022-11-20T06:40:12;32.50;;;23.17;;
5937;SDS011;2994;51.220;4.412;2022-11-20T06:42:37;38.20;;;24.63;;
5937;SDS011;2994;51.220;4.412;2022-11-20T06:45:03;40.93;;;22.87;;
5937;SDS011;2994;51.220;4.412;2022-11-20T06:47:29;40.87;;;23.93;;
5937;SDS011;2994;51.220;4.412;2022-11-20T06:49:54;36.60;;;22.83;;
5937;SDS011;2994;51.220;4.412;2022-11-20T06:52:20;36.10;;;24.47;;
5937;SDS011;2994;51.220;4.412;2022-11-20T06:54:45;37.90;;;23.67;;
5937;SDS011;2994;51.220;4.412;2022-11-20T06:57:11;32.73;;;22.43;;
5937;SDS011;2994;51.220;4.412;2022-11-20T06:59:36;34.73;;;23.73;;
5937;SDS011;2994;51.220;4.412;2022-11-20T07:02:02;38.20;;;23.20;;
5937;SDS011;2994;51.220;4.412;2022-11-20T07:04:27;36.60;;;23.57;;
5937;SDS011;2994;51.220;4.412;2022-11-20T07:06:52;37.67;;;22.73;;
5937;SDS011;2994;51.220;4.412;2022-11-20T07:09:18;34.03;;;23.03;;
5937;SDS011;2994;51.220;4.412;2022-11-20T07:11:43;35.53;;;24.07;;
5937;SDS011;2994;51.220;4.412;2022-11-20T07:14:08;33.27;;;23.33;;
5937;SDS011;2994;51.220;4.412;2022-11-20T07:16:34;34.50;;;22.50;;
5937;SDS011;2994;51.220;4.412;2022-11-20T07:18:59;35.83;;;21.93;;
5937;SDS011;2994;51.220;4.412;2022-11-20T07:21:25;37.57;;;22.97;;
5937;SDS011;2994;51.220;4.412;2022-11-20T07:23:50;41.77;;;25.03;;
5937;SDS011;2994;51.220;4.412;2022-11-20T07:26:15;33.57;;;23.60;;
5937;SDS011;2994;51.220;4.412;2022-11-20T07:28:43;34.97;;;23.53;;
5937;SDS011;2994;51.220;4.412;2022-11-20T07:31:09;32.13;;;22.77;;
5937;SDS011;2994;51.220;4.412;2022-11-20T07:33:34;37.23;;;24.57;;
5937;SDS011;2994;51.220;4.412;2022-11-20T07:36:00;35.43;;;23.30;;
5937;SDS011;2994;51.220;4.412;2022-11-20T07:38:25;30.20;;;22.67;;
5937;SDS011;2994;51.220;4.412;2022-11-20T07:40:54;37.90;;;23.13;;
5937;SDS011;2994;51.220;4.412;2022-11-20T07:43:20;34.70;;;24.00;;
5937;SDS011;2994;51.220;4.412;2022-11-20T07:45:46;34.10;;;22.73;;
5937;SDS011;2994;51.220;4.412;2022-11-20T07:48:14;36.67;;;24.07;;
5937;SDS011;2994;51.220;4.412;2022-11-20T07:50:39;33.97;;;23.40;;
5937;SDS011;2994;51.220;4.412;2022-11-20T07:53:05;36.60;;;23.50;;
5937;SDS011;2994;51.220;4.412;2022-11-20T07:55:31;39.33;;;24.40;;
5937;SDS011;2994;51.220;4.412;2022-11-20T07:57:57;35.80;;;23.97;;
5937;SDS011;2994;51.220;4.412;2022-11-20T08:00:23;35.90;;;24.67;;
5937;SDS011;2994;51.220;4.412;2022-11-20T08:02:50;35.20;;;23.90;;
5937;SDS011;2994;51.220;4.412;2022-11-20T08:05:15;35.73;;;22.80;;
5937;SDS011;2994;51.220;4.412;2022-11-20T08:07:42;34.27;;;24.83;;
5937;SDS011;2994;51.220;4.412;2022-11-20T08:10:09;38.40;;;25.87;;
5937;SDS011;2994;51.220;4.412;2022-11-20T08:12:43;37.80;;;22.97;;
5937;SDS011;2994;51.220;4.412;2022-11-20T08:15:28;37.00;;;23.50;;
5937;SDS011;2994;51.220;4.412;2022-11-20T08:18:05;32.47;;;21.37;;
5937;SDS011;2994;51.220;4.412;2022-11-20T08:20:38;32.20;;;23.23;;
5937;SDS011;2994;51.220;4.412;2022-11-20T08:23:04;36.80;;;23.53;;
5937;SDS011;2994;51.220;4.412;2022-11-20T08:25:32;33.57;;;22.17;;
5937;SDS011;2994;51.220;4.412;2022-11-20T08:27:59;31.73;;;22.00;;
5937;SDS011;2994;51.220;4.412;2022-11-20T08:30:29;40.03;;;24.33;;
5937;SDS011;2994;51.220;4.412;2022-11-20T08:33:00;33.37;;;23.90;;
5937;SDS011;2994;51.220;4.412;2022-11-20T08:35:28;36.27;;;22.53;;
5937;SDS011;2994;51.220;4.412;2022-11-20T08:37:53;39.23;;;24.23;;
5937;SDS011;2994;51.220;4.412;2022-11-20T08:40:19;37.27;;;24.10;;
5937;SDS011;2994;51.220;4.412;2022-11-20T08:42:48;33.97;;;22.30;;
5937;SDS011;2994;51.220;4.412;2022-11-20T08:45:15;35.17;;;23.77;;
5937;SDS011;2994;51.220;4.412;2022-11-20T08:47:41;35.10;;;22.60;;
5937;SDS011;2994;51.220;4.412;2022-11-20T08:50:07;32.40;;;21.53;;
5937;SDS011;2994;51.220;4.412;2022-11-20T08:52:34;30.63;;;20.20;;
5937;SDS011;2994;51.220;4.412;2022-11-20T08:54:59;33.13;;;21.27;;
5937;SDS011;2994;51.220;4.412;2022-11-20T08:57:25;34.67;;;22.40;;
5937;SDS011;2994;51.220;4.412;2022-11-20T09:10:14;34.40;;;23.73;;
5937;SDS011;2994;51.220;4.412;2022-11-20T09:13:08;32.83;;;22.07;;
5937;SDS011;2994;51.220;4.412;2022-11-20T09:18:22;38.40;;;23.83;;
5937;SDS011;2994;51.220;4.412;2022-11-20T09:25:07;30.87;;;20.23;;
5937;SDS011;2994;51.220;4.412;2022-11-20T09:30:50;36.43;;;23.87;;
5937;SDS011;2994;51.220;4.412;2022-11-20T09:33:15;34.50;;;22.67;;
5937;SDS011;2994;51.220;4.412;2022-11-20T09:35:41;34.70;;;22.20;;
5937;SDS011;2994;51.220;4.412;2022-11-20T09:38:08;36.17;;;22.87;;
5937;SDS011;2994;51.220;4.412;2022-11-20T09:40:36;34.10;;;22.27;;
5937;SDS011;2994;51.220;4.412;2022-11-20T09:46:21;34.13;;;21.53;;
5937;SDS011;2994;51.220;4.412;2022-11-20T09:51:36;34.73;;;23.77;;
5937;SDS011;2994;51.220;4.412;2022-11-20T09:54:35;39.63;;;22.40;;
5937;SDS011;2994;51.220;4.412;2022-11-20T09:58:04;38.93;;;22.03;;
5937;SDS011;2994;51.220;4.412;2022-11-20T10:00:04;34.63;;;24.07;;
5937;SDS011;2994;51.220;4.412;2022-11-20T10:05:11;35.20;;;21.23;;
5937;SDS011;2994;51.220;4.412;2022-11-20T10:07:49;38.57;;;20.30;;
5937;SDS011;2994;51.220;4.412;2022-11-20T10:10:42;36.70;;;23.10;;
5937;SDS011;2994;51.220;4.412;2022-11-20T10:30:12;45.93;;;23.90;;
5937;SDS011;2994;51.220;4.412;2022-11-20T10:32:45;40.93;;;24.17;;
5937;SDS011;2994;51.220;4.412;2022-11-20T10:37:40;43.23;;;25.17;;
5937;SDS011;2994;51.220;4.412;2022-11-20T10:42:44;44.13;;;24.10;;
5937;SDS011;2994;51.220;4.412;2022-11-20T10:48:36;48.37;;;25.97;;
5937;SDS011;2994;51.220;4.412;2022-11-20T10:51:08;45.50;;;24.13;;
5937;SDS011;2994;51.220;4.412;2022-11-20T11:02:16;45.13;;;25.70;;
5937;SDS011;2994;51.220;4.412;2022-11-20T11:04:48;49.10;;;23.93;;
5937;SDS011;2994;51.220;4.412;2022-11-20T11:07:22;46.03;;;25.33;;
5937;SDS011;2994;51.220;4.412;2022-11-20T11:09:53;48.87;;;25.87;;
5937;SDS011;2994;51.220;4.412;2022-11-20T11:12:25;46.27;;;26.83;;
5937;SDS011;2994;51.220;4.412;2022-11-20T11:14:52;48.63;;;25.73;;
5937;SDS011;2994;51.220;4.412;2022-11-20T11:17:21;46.40;;;23.33;;
5937;SDS011;2994;51.220;4.412;2022-11-20T11:19:56;46.93;;;23.57;;
5937;SDS011;2994;51.220;4.412;2022-11-20T11:22:43;43.73;;;22.67;;
5937;SDS011;2994;51.220;4.412;2022-11-20T11:27:59;41.97;;;23.23;;
5937;SDS011;2994;51.220;4.412;2022-11-20T11:30:45;46.23;;;24.37;;
5937;SDS011;2994;51.220;4.412;2022-11-20T11:38:54;37.23;;;22.37;;
5937;SDS011;2994;51.220;4.412;2022-11-20T11:41:20;44.27;;;24.23;;
5937;SDS011;2994;51.220;4.412;2022-11-20T11:43:55;46.03;;;23.20;;
5937;SDS011;2994;51.220;4.412;2022-11-20T11:46:54;45.10;;;23.93;;
5937;SDS011;2994;51.220;4.412;2022-11-20T11:49:21;40.03;;;23.97;;
5937;SDS011;2994;51.220;4.412;2022-11-20T11:57:05;35.57;;;20.90;;
5937;SDS011;2994;51.220;4.412;2022-11-20T11:59:57;45.07;;;24.10;;
5937;SDS011;2994;51.220;4.412;2022-11-20T12:10:58;38.23;;;21.80;;
5937;SDS011;2994;51.220;4.412;2022-11-20T12:16:26;38.60;;;20.50;;
5937;SDS011;2994;51.220;4.412;2022-11-20T12:18:53;40.43;;;22.50;;
5937;SDS011;2994;51.220;4.412;2022-11-20T12:21:31;34.73;;;19.30;;
5937;SDS011;2994;51.220;4.412;2022-11-20T12:54:30;25.80;;;14.70;;
5937;SDS011;2994;51.220;4.412;2022-11-20T13:00:25;15.07;;;9.97;;
5937;SDS011;2994;51.220;4.412;2022-11-20T13:12:08;8.87;;;6.20;;
5937;SDS011;2994;51.220;4.412;2022-11-20T13:18:21;6.57;;;4.73;;
5937;SDS011;2994;51.220;4.412;2022-11-20T13:21:00;5.90;;;4.33;;
5937;SDS011;2994;51.220;4.412;2022-11-20T13:23:38;10.73;;;5.10;;
5937;SDS011;2994;51.220;4.412;2022-11-20T13:26:20;9.83;;;7.67;;
5937;SDS011;2994;51.220;4.412;2022-11-20T13:31:37;6.00;;;4.40;;
5937;SDS011;2994;51.220;4.412;2022-11-20T13:46:50;6.90;;;5.67;;
5937;SDS011;2994;51.220;4.412;2022-11-20T13:49:17;6.10;;;5.37;;
5937;SDS011;2994;51.220;4.412;2022-11-20T14:00:20;8.30;;;5.40;;
5937;SDS011;2994;51.220;4.412;2022-11-20T14:06:05;6.80;;;4.93;;
5937;SDS011;2994;51.220;4.412;2022-11-20T14:11:33;9.00;;;6.00;;
5937;SDS011;2994;51.220;4.412;2022-11-20T14:16:53;6.40;;;4.87;;
5937;SDS011;2994;51.220;4.412;2022-11-20T14:19:38;6.30;;;4.70;;
5937;SDS011;2994;51.220;4.412;2022-11-20T14:25:32;5.27;;;4.77;;
5937;SDS011;2994;51.220;4.412;2022-11-20T14:28:10;7.63;;;6.33;;
5937;SDS011;2994;51.220;4.412;2022-11-20T14:30:44;4.93;;;4.27;;
5937;SDS011;2994;51.220;4.412;2022-11-20T14:33:18;4.90;;;4.20;;
5937;SDS011;2994;51.220;4.412;2022-11-20T14:35:46;5.23;;;4.73;;
5937;SDS011;2994;51.220;4.412;2022-11-20T14:38:17;4.73;;;4.23;;
5937;SDS011;2994;51.220;4.412;2022-11-20T14:44:01;7.00;;;5.47;;
5937;SDS011;2994;51.220;4.412;2022-11-20T14:49:40;5.53;;;5.10;;
5937;SDS011;2994;51.220;4.412;2022-11-20T14:52:11;4.87;;;4.43;;
5937;SDS011;2994;51.220;4.412;2022-11-20T14:55:00;4.13;;;3.50;;
5937;SDS011;2994;51.220;4.412;2022-11-20T14:57:26;4.50;;;3.93;;
5937;SDS011;2994;51.220;4.412;2022-11-20T15:03:03;4.40;;;4.00;;
5937;SDS011;2994;51.220;4.412;2022-11-20T15:16:27;7.50;;;6.80;;
5937;SDS011;2994;51.220;4.412;2022-11-20T15:25:29;5.97;;;5.43;;
5937;SDS011;2994;51.220;4.412;2022-11-20T15:54:22;7.20;;;6.50;;
5937;SDS011;2994;51.220;4.412;2022-11-20T16:00:08;6.13;;;5.53;;
5937;SDS011;2994;51.220;4.412;2022-11-20T16:02:40;8.23;;;7.30;;
5937;SDS011;2994;51.220;4.412;2022-11-20T16:05:11;7.30;;;6.50;;
5937;SDS011;2994;51.220;4.412;2022-11-20T16:07:42;9.30;;;5.77;;
5937;SDS011;2994;51.220;4.412;2022-11-20T16:10:15;8.63;;;6.30;;
5937;SDS011;2994;51.220;4.412;2022-11-20T16:12:43;7.17;;;5.80;;
5937;SDS011;2994;51.220;4.412;2022-11-20T16:15:28;8.53;;;6.27;;
5937;SDS011;2994;51.220;4.412;2022-11-20T16:28:40;8.80;;;5.40;;
5937;SDS011;2994;51.220;4.412;2022-11-20T16:34:06;5.37;;;4.87;;
5937;SDS011;2994;51.220;4.412;2022-11-20T16:39:10;13.10;;;5.83;;
5937;SDS011;2994;51.220;4.412;2022-11-20T16:46:47;14.03;;;5.13;;
5937;SDS011;2994;51.220;4.412;2022-11-20T16:51:51;7.37;;;3.90;;
5937;SDS011;2994;51.220;4.412;2022-11-20T16:54:17;10.20;;;5.37;;
5937;SDS011;2994;51.220;4.412;2022-11-20T17:00:30;12.70;;;5.00;;
5937;SDS011;2994;51.220;4.412;2022-11-20T17:03:23;8.17;;;4.43;;
5937;SDS011;2994;51.220;4.412;2022-11-20T17:05:52;7.70;;;4.67;;
5937;SDS011;2994;51.220;4.412;2022-11-20T17:20:06;10.90;;;4.73;;
5937;SDS011;2994;51.220;4.412;2022-11-20T17:25:49;12.27;;;4.80;;
5937;SDS011;2994;51.220;4.412;2022-11-20T17:28:14;9.47;;;5.07;;
5937;SDS011;2994;51.220;4.412;2022-11-20T17:30:40;11.67;;;4.40;;
5937;SDS011;2994;51.220;4.412;2022-11-20T17:53:48;11.70;;;5.10;;
5937;SDS011;2994;51.220;4.412;2022-11-20T17:56:14;13.53;;;5.53;;
5937;SDS011;2994;51.220;4.412;2022-11-20T17:59:29;10.17;;;5.60;;
5937;SDS011;2994;51.220;4.412;2022-11-20T18:08:53;10.53;;;4.93;;
5937;SDS011;2994;51.220;4.412;2022-11-20T18:22:34;11.33;;;5.17;;
5937;SDS011;2994;51.220;4.412;2022-11-20T18:25:08;10.23;;;5.00;;
5937;SDS011;2994;51.220;4.412;2022-11-20T18:27:36;7.63;;;4.57;;
5937;SDS011;2994;51.220;4.412;2022-11-20T18:30:04;9.20;;;4.77;;
5937;SDS011;2994;51.220;4.412;2022-11-20T18:32:33;13.80;;;5.37;;
5937;SDS011;2994;51.220;4.412;2022-11-20T18:35:00;10.27;;;5.17;;
5937;SDS011;2994;51.220;4.412;2022-11-20T18:37:31;13.43;;;5.73;;
5937;SDS011;2994;51.220;4.412;2022-11-20T18:39:57;14.60;;;6.67;;
5937;SDS011;2994;51.220;4.412;2022-11-20T18:42:25;10.27;;;5.60;;
5937;SDS011;2994;51.220;4.412;2022-11-20T18:45:09;15.30;;;5.53;;
5937;SDS011;2994;51.220;4.412;2022-11-20T18:50:30;9.30;;;5.23;;
5937;SDS011;2994;51.220;4.412;2022-11-20T18:52:59;12.20;;;4.90;;
5937;SDS011;2994;51.220;4.412;2022-11-20T18:55:30;11.17;;;5.80;;
5937;SDS011;2994;51.220;4.412;2022-11-20T18:57:55;13.77;;;5.97;;
5937;SDS011;2994;51.220;4.412;2022-11-20T19:00:27;9.90;;;5.23;;
5937;SDS011;2994;51.220;4.412;2022-11-20T19:03:02;10.80;;;6.17;;
5937;SDS011;2994;51.220;4.412;2022-11-20T19:08:38;10.33;;;5.43;;
5937;SDS011;2994;51.220;4.412;2022-11-20T19:11:52;10.23;;;6.30;;
5937;SDS011;2994;51.220;4.412;2022-11-20T19:17:06;9.97;;;5.63;;
5937;SDS011;2994;51.220;4.412;2022-11-20T19:19:33;10.00;;;5.40;;
5937;SDS011;2994;51.220;4.412;2022-11-20T19:21:59;11.90;;;6.00;;
5937;SDS011;2994;51.220;4.412;2022-11-20T19:24:24;11.10;;;6.03;;
5937;SDS011;2994;51.220;4.412;2022-11-20T19:26:53;11.20;;;6.93;;
5937;SDS011;2994;51.220;4.412;2022-11-20T19:29:20;13.10;;;7.13;;
5937;SDS011;2994;51.220;4.412;2022-11-20T19:31:46;12.80;;;6.80;;
5937;SDS011;2994;51.220;4.412;2022-11-20T19:34:12;11.67;;;7.20;;
5937;SDS011;2994;51.220;4.412;2022-11-20T19:36:44;12.10;;;6.33;;
5937;SDS011;2994;51.220;4.412;2022-11-20T19:42:15;14.10;;;7.70;;
5937;SDS011;2994;51.220;4.412;2022-11-20T19:44:50;13.53;;;6.43;;
5937;SDS011;2994;51.220;4.412;2022-11-20T19:47:15;10.30;;;6.40;;
5937;SDS011;2994;51.220;4.412;2022-11-20T19:49:43;8.77;;;6.60;;
5937;SDS011;2994;51.220;4.412;2022-11-20T19:52:08;12.23;;;6.93;;
5937;SDS011;2994;51.220;4.412;2022-11-20T19:54:40;12.13;;;6.03;;
5937;SDS011;2994;51.220;4.412;2022-11-20T19:57:05;9.30;;;6.37;;
5937;SDS011;2994;51.220;4.412;2022-11-20T19:59:31;10.70;;;6.83;;
5937;SDS011;2994;51.220;4.412;2022-11-20T20:05:03;11.37;;;7.07;;
5937;SDS011;2994;51.220;4.412;2022-11-20T20:07:32;14.30;;;7.07;;
5937;SDS011;2994;51.220;4.412;2022-11-20T20:09:57;14.23;;;7.53;;
5937;SDS011;2994;51.220;4.412;2022-11-20T20:12:23;10.77;;;7.40;;
5937;SDS011;2994;51.220;4.412;2022-11-20T20:14:48;15.47;;;7.63;;
5937;SDS011;2994;51.220;4.412;2022-11-20T20:17:14;17.63;;;7.10;;
5937;SDS011;2994;51.220;4.412;2022-11-20T20:19:39;17.90;;;7.70;;
5937;SDS011;2994;51.220;4.412;2022-11-20T20:22:05;13.37;;;8.67;;
5937;SDS011;2994;51.220;4.412;2022-11-20T20:24:30;15.30;;;7.83;;
5937;SDS011;2994;51.220;4.412;2022-11-20T20:26:56;10.80;;;7.43;;
5937;SDS011;2994;51.220;4.412;2022-11-20T20:29:21;15.40;;;8.23;;
5937;SDS011;2994;51.220;4.412;2022-11-20T20:31:47;14.33;;;6.90;;
5937;SDS011;2994;51.220;4.412;2022-11-20T20:34:15;16.07;;;7.30;;
5937;SDS011;2994;51.220;4.412;2022-11-20T20:36:40;14.50;;;6.73;;